Time;durP1;ratioP1;P1;durP2;ratioP2;P2;SDS_P1;SDS_P2;PMS_P1;PMS_P2;Temp;Humidity;BMP_temperature;BMP_pressure;BME280_temperature;BME280_humidity;BME280_pressure;Samples;Min_cycle;Max_cycle;Signal;HPM_P1;HPM_P2
2021/12/19 00:09:39;;;;;;;1.02;1.02;;;3.40;99.90;;;;;;5260484;28;20077;-76
2021/12/19 00:12:13;;;;;;;0.50;0.50;;;3.40;99.90;;;;;;5260380;28;20059;-76
2021/12/19 00:14:49;;;;;;;0.70;0.70;;;3.50;99.90;;;;;;5260052;28;20028;-76
2021/12/19 00:17:23;;;;;;;1.05;1.05;;;3.50;99.90;;;;;;5259891;28;20047;-77
2021/12/19 00:20:07;;;;;;;0.60;0.60;;;3.40;99.90;;;;;;5261032;28;20031;-77
2021/12/19 00:22:39;;;;;;;;;;;3.30;99.90;;;;;;5262344;28;20157;-77
2021/12/19 00:25:12;;;;;;;0.45;0.45;;;3.30;99.90;;;;;;5281348;28;19915;-77
2021/12/19 00:27:47;;;;;;;0.73;0.73;;;3.20;99.90;;;;;;5264540;28;20278;-76
2021/12/19 00:30:23;;;;;;;0.80;0.80;;;3.20;99.90;;;;;;5265003;28;20020;-76
2021/12/19 00:32:54;;;;;;;0.70;0.70;;;3.10;99.90;;;;;;5260502;28;20080;-77
2021/12/19 00:35:29;;;;;;;2.10;2.00;;;3.10;99.90;;;;;;5264270;28;20035;-76
2021/12/19 00:38:04;;;;;;;0.50;0.50;;;3.00;99.90;;;;;;5231283;28;20558;-76
2021/12/19 00:40:38;;;;;;;0.82;0.82;;;3.00;99.90;;;;;;5265283;28;20043;-77
2021/12/19 00:43:22;;;;;;;0.63;0.63;;;3.00;99.90;;;;;;5265119;28;20039;-77
2021/12/19 00:45:54;;;;;;;0.70;0.70;;;2.90;99.90;;;;;;5264392;28;20040;-76
2021/12/19 00:48:25;;;;;;;0.70;0.70;;;2.80;99.90;;;;;;5247175;28;20099;-76
2021/12/19 00:50:57;;;;;;;0.50;0.50;;;2.80;99.90;;;;;;5227948;28;20040;-76
2021/12/19 00:53:32;;;;;;;0.60;0.60;;;2.80;99.90;;;;;;5263922;28;20020;-76
2021/12/19 00:56:08;;;;;;;0.73;0.73;;;2.70;99.90;;;;;;5246528;28;20052;-75
2021/12/19 00:58:40;;;;;;;1.02;1.02;;;2.60;99.90;;;;;;5263735;28;20059;-76
2021/12/19 01:01:16;;;;;;;0.52;0.52;;;2.70;99.90;;;;;;5261737;28;20066;-76
2021/12/19 01:03:50;;;;;;;0.52;0.52;;;2.60;99.90;;;;;;5261384;28;20431;-75
2021/12/19 01:06:21;;;;;;;0.70;0.70;;;2.60;99.90;;;;;;5254703;28;20039;-76
2021/12/19 01:08:52;;;;;;;1.55;1.13;;;2.60;99.90;;;;;;5242105;28;20033;-76
2021/12/19 01:11:23;;;;;;;0.82;0.82;;;2.60;99.90;;;;;;5238055;28;20372;-76
2021/12/19 01:13:59;;;;;;;0.82;0.82;;;2.70;99.90;;;;;;5262610;28;20036;-76
2021/12/19 01:16:35;;;;;;;0.45;0.45;;;2.60;99.90;;;;;;5246264;28;20090;-75
2021/12/19 01:19:11;;;;;;;1.08;1.02;;;2.60;99.90;;;;;;5264194;28;20447;-76
2021/12/19 01:21:42;;;;;;;0.50;0.50;;;2.50;99.90;;;;;;5246796;28;20081;-76
2021/12/19 01:24:16;;;;;;;0.52;0.52;;;2.60;99.90;;;;;;5262861;28;20024;-76
2021/12/19 01:26:47;;;;;;;0.50;0.50;;;2.60;99.90;;;;;;5245894;28;20495;-76
2021/12/19 01:29:18;;;;;;;0.40;0.40;;;2.60;99.90;;;;;;5262085;28;20043;-75
2021/12/19 01:31:55;;;;;;;0.60;0.60;;;2.50;99.90;;;;;;5262760;28;20035;-76
2021/12/19 01:34:26;;;;;;;0.85;0.82;;;2.50;99.90;;;;;;5241813;28;20065;-76
2021/12/19 01:36:58;;;;;;;0.95;0.95;;;2.50;99.90;;;;;;5258698;28;20591;-76
2021/12/19 01:39:31;;;;;;;0.50;0.50;;;2.40;99.90;;;;;;5262633;28;20266;-76
2021/12/19 01:42:12;;;;;;;0.80;0.80;;;2.40;99.90;;;;;;5278925;28;20107;-76
2021/12/19 01:44:44;;;;;;;0.70;0.70;;;2.40;99.90;;;;;;5263179;28;20307;-75
2021/12/19 01:47:18;;;;;;;0.43;0.43;;;2.40;99.90;;;;;;5279936;28;20028;-75
2021/12/19 01:49:52;;;;;;;0.85;0.85;;;2.40;99.90;;;;;;5263662;28;20447;-75
2021/12/19 01:52:24;;;;;;;0.80;0.80;;;2.40;99.90;;;;;;5241439;28;20509;-76
2021/12/19 01:54:58;;;;;;;0.82;0.82;;;2.40;99.90;;;;;;5270253;28;20036;-76
2021/12/19 01:57:36;;;;;;;1.05;0.82;;;2.30;99.90;;;;;;5263181;28;20049;-75
2021/12/19 02:00:19;;;;;;;0.90;0.90;;;2.30;99.90;;;;;;5262449;28;20034;-76
2021/12/19 02:02:56;;;;;;;0.70;0.70;;;2.30;99.90;;;;;;5261438;28;20364;-76
2021/12/19 02:05:31;;;;;;;0.75;0.75;;;2.30;99.90;;;;;;5245906;28;20216;-76
2021/12/19 02:08:08;;;;;;;0.98;0.93;;;2.20;99.90;;;;;;5245557;28;20028;-75
2021/12/19 02:10:42;;;;;;;1.00;1.00;;;2.30;99.90;;;;;;5262987;28;20077;-76
2021/12/19 02:13:19;;;;;;;1.10;1.10;;;2.20;99.90;;;;;;5227533;28;20029;-75
2021/12/19 02:15:52;;;;;;;0.70;0.70;;;2.20;99.90;;;;;;5241487;28;20517;-75
2021/12/19 02:18:23;;;;;;;0.75;0.75;;;2.20;99.90;;;;;;5225270;28;20036;-74
2021/12/19 02:20:58;;;;;;;1.00;1.00;;;2.20;99.90;;;;;;5254335;28;20617;-74
2021/12/19 02:23:35;;;;;;;0.93;0.93;;;2.20;99.90;;;;;;5262065;28;20058;-74
2021/12/19 02:26:08;;;;;;;0.60;0.60;;;2.20;99.90;;;;;;5245755;28;20027;-74
2021/12/19 02:28:42;;;;;;;0.93;0.93;;;2.20;99.90;;;;;;5262401;28;20024;-75
2021/12/19 02:31:19;;;;;;;1.05;1.05;;;2.20;99.90;;;;;;5263141;28;20066;-75
2021/12/19 02:34:19;;;;;;;1.27;1.17;;;2.20;99.90;;;;;;5258996;28;20024;-75
2021/12/19 02:50:51;;;;;;;0.82;0.82;;;2.10;99.90;;;;;;5237541;28;20046;-74
2021/12/19 02:53:43;;;;;;;1.50;1.40;;;2.10;99.90;;;;;;5229536;28;20033;-75
2021/12/19 02:56:14;;;;;;;0.95;0.95;;;2.10;99.90;;;;;;5268222;28;20462;-75
2021/12/19 02:58:49;;;;;;;0.70;0.70;;;2.10;99.90;;;;;;5257260;28;20020;-75
2021/12/19 03:01:23;;;;;;;0.40;0.40;;;2.10;99.90;;;;;;5244654;28;20040;-74
2021/12/19 03:03:59;;;;;;;;;;;2.10;99.90;;;;;;5262343;28;20104;-75
2021/12/19 03:06:32;;;;;;;0.60;0.60;;;2.10;99.90;;;;;;5268227;28;20442;-75
2021/12/19 03:09:08;;;;;;;0.65;0.65;;;2.10;99.90;;;;;;5259299;28;20047;-75
2021/12/19 03:12:03;;;;;;;0.73;0.73;;;2.10;99.90;;;;;;5262263;28;20093;-74
2021/12/19 03:20:21;;;;;;;0.40;0.40;;;2.10;99.90;;;;;;5246631;28;20032;-75
2021/12/19 03:22:52;;;;;;;1.20;1.20;;;2.10;99.90;;;;;;5260945;28;20099;-75
2021/12/19 03:25:23;;;;;;;0.40;0.40;;;2.10;99.90;;;;;;5253982;28;20047;-75
2021/12/19 03:27:54;;;;;;;0.75;0.75;;;2.10;99.90;;;;;;5255021;28;20043;-75
2021/12/19 03:30:31;;;;;;;0.50;0.50;;;2.10;99.90;;;;;;5225757;28;20044;-75
2021/12/19 03:33:11;;;;;;;0.50;0.50;;;2.10;99.90;;;;;;5260344;28;20430;-74
2021/12/19 03:35:49;;;;;;;1.15;1.15;;;2.10;99.90;;;;;;5261211;28;20305;-76
2021/12/19 03:38:25;;;;;;;0.80;0.80;;;2.10;99.90;;;;;;5244660;28;20038;-75
2021/12/19 03:42:01;;;;;;;0.52;0.52;;;2.10;99.90;;;;;;5260481;28;20317;-75
2021/12/19 03:44:10;;;;;;;0.85;0.85;;;2.10;99.90;;;;;;5255817;28;20043;-76
2021/12/19 03:46:44;;;;;;;0.60;0.60;;;2.10;99.90;;;;;;5261197;28;20187;-75
2021/12/19 03:49:18;;;;;;;0.85;0.85;;;2.20;99.90;;;;;;5260437;28;20055;-76
2021/12/19 03:51:49;;;;;;;1.90;1.80;;;2.20;99.90;;;;;;5258300;28;20055;-76
2021/12/19 03:54:22;;;;;;;0.52;0.52;;;2.20;99.90;;;;;;5259891;28;20020;-75
2021/12/19 03:56:53;;;;;;;0.55;0.55;;;2.10;99.90;;;;;;5259360;28;20035;-75
2021/12/19 03:59:31;;;;;;;0.80;0.80;;;2.10;99.90;;;;;;5262158;28;20545;-75
2021/12/19 04:02:03;;;;;;;0.93;0.93;;;2.10;99.90;;;;;;5260519;28;20032;-74
2021/12/19 04:04:38;;;;;;;0.70;0.70;;;2.10;99.90;;;;;;5254054;28;20077;-75
2021/12/19 04:07:12;;;;;;;0.55;0.55;;;2.20;99.90;;;;;;5263189;28;20070;-75
2021/12/19 04:09:45;;;;;;;0.88;0.88;;;2.20;99.90;;;;;;5262983;28;20523;-74
2021/12/19 04:12:18;;;;;;;0.80;0.80;;;2.10;99.90;;;;;;5256603;28;20107;-74
2021/12/19 04:14:52;;;;;;;0.75;0.75;;;2.20;99.90;;;;;;5239559;28;20039;-75
2021/12/19 04:17:26;;;;;;;0.52;0.52;;;2.20;99.90;;;;;;5223080;28;20048;-75
2021/12/19 04:19:57;;;;;;;0.60;0.60;;;2.30;99.90;;;;;;5254813;28;20035;-75
2021/12/19 04:22:27;;;;;;;0.70;0.70;;;2.30;99.90;;;;;;5242548;28;20036;-75
2021/12/19 04:24:58;;;;;;;0.35;0.35;;;2.40;99.90;;;;;;5240564;28;20075;-75
2021/12/19 04:27:30;;;;;;;0.80;0.80;;;2.40;99.90;;;;;;5243284;28;20039;-74
2021/12/19 04:30:01;;;;;;;0.75;0.75;;;2.40;99.90;;;;;;5259957;28;20091;-75
2021/12/19 04:32:37;;;;;;;1.02;1.02;;;2.40;99.90;;;;;;5260602;28;20412;-75
2021/12/19 04:35:09;;;;;;;1.13;1.13;;;2.40;99.90;;;;;;5260569;28;20032;-74
2021/12/19 04:57:42;;;;;;;0.60;0.60;;;2.50;99.90;;;;;;5260230;28;20450;-76
2021/12/19 05:00:20;;;;;;;1.63;1.52;;;2.40;99.90;;;;;;5260085;28;20040;-75
2021/12/19 05:03:18;;;;;;;0.85;0.85;;;2.50;99.90;;;;;;5259935;28;20275;-75
2021/12/19 05:05:59;;;;;;;1.00;1.00;;;2.50;99.90;;;;;;5226586;28;20556;-75
2021/12/19 05:14:20;;;;;;;0.95;0.95;;;2.50;99.90;;;;;;5262933;28;20057;-75
2021/12/19 05:16:52;;;;;;;0.50;0.50;;;2.50;99.90;;;;;;5264863;28;20032;-75
2021/12/19 05:19:30;;;;;;;0.60;0.60;;;2.50;99.90;;;;;;5263613;28;20095;-75
2021/12/19 05:22:04;;;;;;;1.00;1.00;;;2.60;99.90;;;;;;5262287;28;20024;-74
2021/12/19 05:25:01;;;;;;;;;;;2.60;99.90;;;;;;5249029;28;20100;-75
2021/12/19 05:27:38;;;;;;;0.40;0.40;;;2.60;99.90;;;;;;5263809;28;19908;-75
2021/12/19 05:30:16;;;;;;;0.50;0.50;;;2.50;99.90;;;;;;5262579;28;20036;-75
2021/12/19 05:32:51;;;;;;;0.50;0.50;;;2.40;99.90;;;;;;5263414;28;20298;-75
2021/12/19 05:35:52;;;;;;;0.43;0.43;;;2.40;99.90;;;;;;5264318;28;20032;-75
2021/12/19 05:45:11;;;;;;;0.85;0.85;;;2.60;99.90;;;;;;5263628;28;20256;-75
2021/12/19 05:47:04;;;;;;;0.60;0.60;;;2.60;99.90;;;;;;5262066;28;20697;-74
2021/12/19 05:49:35;;;;;;;0.73;0.73;;;2.60;99.90;;;;;;5262080;28;20048;-76
2021/12/19 05:52:12;;;;;;;0.52;0.52;;;2.70;99.90;;;;;;5263813;28;20023;-74
2021/12/19 05:54:45;;;;;;;1.25;1.25;;;2.60;99.90;;;;;;5246684;28;20038;-74
2021/12/19 05:57:20;;;;;;;0.68;0.68;;;2.60;99.90;;;;;;5262732;28;20026;-74
2021/12/19 05:59:53;;;;;;;0.60;0.60;;;2.60;99.90;;;;;;5247336;28;20051;-75
2021/12/19 06:02:29;;;;;;;0.50;0.50;;;2.70;99.90;;;;;;5262691;28;20032;-75
2021/12/19 06:05:12;;;;;;;0.52;0.52;;;2.70;99.90;;;;;;5223530;28;20095;-75
2021/12/19 06:07:46;;;;;;;0.45;0.45;;;2.70;99.90;;;;;;5246685;28;20040;-75
2021/12/19 06:10:22;;;;;;;0.75;0.75;;;2.80;99.90;;;;;;5246946;28;20043;-74
2021/12/19 06:12:53;;;;;;;0.50;0.50;;;2.90;99.90;;;;;;5245332;28;20300;-74
2021/12/19 06:15:30;;;;;;;;;;;2.90;99.90;;;;;;5263001;28;20044;-75
2021/12/19 06:18:09;;;;;;;0.50;0.50;;;2.90;99.90;;;;;;5253023;28;20242;-75
2021/12/19 06:20:47;;;;;;;0.50;0.50;;;3.00;99.90;;;;;;5258572;28;20063;-75
2021/12/19 06:23:23;;;;;;;0.52;0.52;;;3.00;99.90;;;;;;5243143;28;20032;-74
2021/12/19 06:25:55;;;;;;;0.70;0.70;;;3.00;99.90;;;;;;5243357;28;20024;-74
2021/12/19 06:28:31;;;;;;;1.60;1.58;;;3.00;99.90;;;;;;5262825;28;20358;-75
2021/12/19 06:31:02;;;;;;;0.60;0.60;;;2.90;99.90;;;;;;5263379;28;20061;-76
2021/12/19 06:33:38;;;;;;;0.60;0.60;;;2.90;99.90;;;;;;5262143;28;20067;-75
2021/12/19 06:36:13;;;;;;;2.70;0.85;;;3.00;99.90;;;;;;5241508;28;20542;-75
2021/12/19 06:38:48;;;;;;;0.60;0.60;;;3.00;99.90;;;;;;5235833;28;20108;-75
2021/12/19 06:41:20;;;;;;;0.70;0.70;;;3.00;99.90;;;;;;5242342;28;20028;-74
2021/12/19 06:43:55;;;;;;;1.15;1.15;;;3.00;99.90;;;;;;5245639;28;20046;-74
2021/12/19 06:46:29;;;;;;;0.60;0.60;;;3.10;99.90;;;;;;5261759;28;20374;-75
2021/12/19 06:49:09;;;;;;;0.63;0.63;;;3.20;99.90;;;;;;5261078;28;20028;-75
2021/12/19 06:51:40;;;;;;;1.23;1.17;;;3.20;99.90;;;;;;5245624;28;20048;-75
2021/12/19 06:54:13;;;;;;;0.68;0.68;;;3.30;99.90;;;;;;5260927;28;20441;-75
2021/12/19 06:56:52;;;;;;;0.60;0.60;;;3.40;99.90;;;;;;5260814;28;20422;-74
2021/12/19 06:59:23;;;;;;;0.50;0.50;;;3.40;99.90;;;;;;5260693;28;20021;-75
2021/12/19 07:01:59;;;;;;;0.50;0.50;;;3.40;99.90;;;;;;5278088;28;20104;-75
2021/12/19 07:04:35;;;;;;;0.40;0.40;;;3.40;99.90;;;;;;5253520;27;20041;-75
2021/12/19 07:07:09;;;;;;;0.50;0.50;;;3.40;99.90;;;;;;5259195;28;20075;-75
2021/12/19 07:09:40;;;;;;;0.65;0.65;;;3.50;99.90;;;;;;5257322;28;20028;-75
2021/12/19 07:12:17;;;;;;;0.68;0.68;;;3.50;99.90;;;;;;5244103;28;20040;-74
2021/12/19 07:14:51;;;;;;;0.65;0.65;;;3.70;99.90;;;;;;5261045;28;20044;-75
2021/12/19 07:17:22;;;;;;;0.65;0.65;;;3.80;99.90;;;;;;5259256;28;20028;-75
2021/12/19 07:19:56;;;;;;;1.52;1.42;;;3.80;99.90;;;;;;5261571;28;20061;-76
2021/12/19 07:22:29;;;;;;;0.60;0.60;;;3.90;99.90;;;;;;5261411;28;20077;-75
2021/12/19 07:25:00;;;;;;;0.43;0.43;;;3.90;99.90;;;;;;5244413;28;20524;-75
2021/12/19 07:27:32;;;;;;;0.60;0.60;;;4.00;99.90;;;;;;5262711;28;20028;-76
2021/12/19 07:30:05;;;;;;;0.40;0.40;;;4.00;99.90;;;;;;5262207;28;20462;-76
2021/12/19 07:32:37;;;;;;;0.60;0.60;;;4.00;99.90;;;;;;5259476;28;20137;-76
2021/12/19 07:35:14;;;;;;;0.65;0.65;;;4.00;99.90;;;;;;5260916;28;20032;-76
2021/12/19 07:37:50;;;;;;;0.60;0.60;;;4.00;99.90;;;;;;5260288;28;20039;-76
2021/12/19 07:40:28;;;;;;;0.60;0.60;;;4.10;99.90;;;;;;5261186;28;20132;-75
2021/12/19 07:43:10;;;;;;;0.40;0.40;;;4.10;99.90;;;;;;5230069;28;20036;-74
2021/12/19 07:45:44;;;;;;;0.52;0.52;;;4.20;99.90;;;;;;5256419;28;20457;-76
2021/12/19 07:48:24;;;;;;;0.73;0.73;;;4.20;99.90;;;;;;5246441;28;20041;-74
2021/12/19 07:50:57;;;;;;;0.60;0.60;;;4.30;99.90;;;;;;5249293;28;20099;-75
2021/12/19 07:53:38;;;;;;;0.40;0.40;;;4.30;99.90;;;;;;5258408;28;20607;-75
2021/12/19 07:56:09;;;;;;;0.52;0.52;;;4.20;99.90;;;;;;5252754;28;20337;-75
2021/12/19 07:58:43;;;;;;;0.70;0.70;;;4.20;99.90;;;;;;5250164;28;20035;-75
2021/12/19 08:01:19;;;;;;;0.70;0.70;;;4.20;99.90;;;;;;5222062;28;20590;-76
2021/12/19 08:03:55;;;;;;;0.70;0.70;;;4.20;99.90;;;;;;5260266;28;20070;-76
2021/12/19 08:06:29;;;;;;;0.43;0.43;;;4.30;99.90;;;;;;5265011;27;20119;-76
2021/12/19 08:09:12;;;;;;;0.80;0.80;;;4.30;99.90;;;;;;5247570;28;20099;-73
2021/12/19 08:11:48;;;;;;;0.60;0.60;;;4.30;99.90;;;;;;5262238;28;20040;-75
2021/12/19 08:14:24;;;;;;;0.45;0.45;;;4.30;99.90;;;;;;5259135;28;20245;-74
2021/12/19 08:16:56;;;;;;;0.82;0.82;;;4.30;99.90;;;;;;5257911;28;20029;-75
2021/12/19 08:19:30;;;;;;;0.75;0.75;;;4.30;99.90;;;;;;5254411;28;20048;-74
2021/12/19 08:22:04;;;;;;;0.47;0.47;;;4.40;99.90;;;;;;5261902;28;20036;-74
2021/12/19 08:24:39;;;;;;;0.80;0.80;;;4.40;99.90;;;;;;5262656;28;20035;-74
2021/12/19 08:27:15;;;;;;;0.50;0.50;;;4.50;99.90;;;;;;5263872;28;20450;-75
2021/12/19 08:29:48;;;;;;;0.57;0.57;;;4.50;99.90;;;;;;5263568;28;20028;-76
2021/12/19 08:32:23;;;;;;;0.70;0.70;;;4.50;99.90;;;;;;5261031;28;20088;-75
2021/12/19 08:34:53;;;;;;;0.70;0.70;;;4.60;99.90;;;;;;5247075;28;20049;-75
2021/12/19 08:37:25;;;;;;;0.50;0.50;;;4.70;99.90;;;;;;5248039;28;20036;-76
2021/12/19 08:39:59;;;;;;;0.63;0.63;;;4.80;99.90;;;;;;5227958;28;20048;-74
2021/12/19 08:42:38;;;;;;;0.73;0.73;;;4.80;99.90;;;;;;5244393;28;20047;-74
2021/12/19 08:45:15;;;;;;;0.50;0.50;;;4.90;99.90;;;;;;5248418;28;20031;-74
2021/12/19 08:47:47;;;;;;;0.50;0.50;;;4.90;99.90;;;;;;5264977;28;20051;-75
2021/12/19 08:50:18;;;;;;;0.80;0.80;;;5.00;99.90;;;;;;5265735;28;20032;-75
2021/12/19 08:52:52;;;;;;;0.47;0.47;;;5.10;99.90;;;;;;5264686;28;20107;-74
2021/12/19 08:55:26;;;;;;;0.60;0.60;;;5.10;99.90;;;;;;5247734;28;20024;-75
2021/12/19 08:57:59;;;;;;;0.70;0.70;;;5.10;99.90;;;;;;5265067;28;20032;-76
2021/12/19 09:00:35;;;;;;;0.73;0.73;;;5.20;99.90;;;;;;5256859;28;20312;-74
2021/12/19 09:03:17;;;;;;;0.50;0.50;;;5.30;99.90;;;;;;5243411;28;20264;-75
2021/12/19 09:05:48;;;;;;;0.68;0.68;;;5.30;99.90;;;;;;5264197;28;20066;-74
2021/12/19 09:08:21;;;;;;;0.50;0.50;;;5.30;99.90;;;;;;5266345;28;20035;-77
2021/12/19 09:10:57;;;;;;;0.50;0.50;;;5.40;99.90;;;;;;5265094;28;20031;-75
2021/12/19 09:13:27;;;;;;;0.60;0.60;;;5.30;99.90;;;;;;5251692;28;20500;-75
2021/12/19 09:16:00;;;;;;;0.65;0.65;;;5.40;99.90;;;;;;5266421;28;20364;-75
2021/12/19 09:18:33;;;;;;;0.60;0.60;;;5.40;99.90;;;;;;5263593;28;20044;-75
2021/12/19 09:21:09;;;;;;;0.60;0.60;;;5.40;99.90;;;;;;5239238;28;20048;-75
2021/12/19 09:23:48;;;;;;;0.65;0.65;;;5.50;99.90;;;;;;5254353;28;20028;-75
2021/12/19 09:26:18;;;;;;;0.55;0.55;;;5.60;99.90;;;;;;5258957;28;20087;-73
2021/12/19 09:28:51;;;;;;;0.70;0.70;;;5.70;99.90;;;;;;5250454;28;20020;-73
2021/12/19 09:31:23;;;;;;;0.50;0.50;;;5.90;99.90;;;;;;5255978;28;20074;-74
2021/12/19 09:33:54;;;;;;;0.77;0.77;;;5.90;99.90;;;;;;5245121;28;20028;-74
2021/12/19 09:36:32;;;;;;;0.52;0.52;;;6.00;99.90;;;;;;5239740;28;20031;-74
2021/12/19 09:39:11;;;;;;;0.70;0.70;;;5.90;99.90;;;;;;5263010;28;20257;-73
2021/12/19 09:41:46;;;;;;;0.50;0.50;;;5.90;99.90;;;;;;5263196;28;20040;-74
2021/12/19 09:44:23;;;;;;;0.63;0.63;;;6.10;99.90;;;;;;5264081;28;20051;-73
2021/12/19 09:47:01;;;;;;;0.60;0.60;;;6.20;99.90;;;;;;5263810;28;20035;-74
2021/12/19 09:49:35;;;;;;;0.93;0.93;;;6.40;99.90;;;;;;5230184;28;20032;-75
2021/12/19 09:52:09;;;;;;;;;;;6.20;99.90;;;;;;5262468;28;20101;-73
2021/12/19 09:54:43;;;;;;;0.80;0.80;;;6.20;99.90;;;;;;5260060;28;19908;-75
2021/12/19 09:57:16;;;;;;;0.63;0.63;;;6.10;99.90;;;;;;5259032;28;20047;-74
2021/12/19 09:59:49;;;;;;;0.88;0.88;;;6.30;99.90;;;;;;5257869;28;20032;-73
2021/12/19 10:02:20;;;;;;;0.55;0.55;;;6.30;99.90;;;;;;5241326;28;20063;-74
2021/12/19 10:04:53;;;;;;;0.88;0.88;;;6.40;99.90;;;;;;5238031;28;20047;-74
2021/12/19 10:07:29;;;;;;;0.57;0.57;;;6.40;99.90;;;;;;5260230;28;20046;-75
2021/12/19 10:10:11;;;;;;;0.77;0.77;;;6.40;99.90;;;;;;5258635;28;20048;-74
2021/12/19 10:12:51;;;;;;;0.80;0.80;;;6.50;99.90;;;;;;5272725;28;20449;-74
2021/12/19 10:15:38;;;;;;;0.60;0.60;;;6.30;99.90;;;;;;5244527;28;20023;-75
2021/12/19 10:18:24;;;;;;;0.60;0.60;;;6.50;99.90;;;;;;5243463;28;20408;-75
2021/12/19 10:21:01;;;;;;;0.70;0.70;;;6.60;99.90;;;;;;5260571;28;20042;-74
2021/12/19 10:23:36;;;;;;;0.65;0.65;;;6.70;99.90;;;;;;5260809;28;20016;-75
2021/12/19 10:26:13;;;;;;;0.80;0.80;;;6.80;99.90;;;;;;5261401;28;20047;-74
2021/12/19 10:29:00;;;;;;;0.80;0.80;;;7.00;99.90;;;;;;5259691;28;20115;-74
2021/12/19 10:31:32;;;;;;;0.80;0.80;;;7.30;99.90;;;;;;5260160;28;20389;-73
2021/12/19 10:34:23;;;;;;;0.70;0.70;;;7.60;99.90;;;;;;5250652;28;20039;-74
2021/12/19 10:36:54;;;;;;;0.60;0.60;;;7.50;99.90;;;;;;5241598;28;20040;-75
2021/12/19 10:39:41;;;;;;;0.80;0.80;;;7.70;99.90;;;;;;5241360;28;20462;-74
2021/12/19 10:42:12;;;;;;;0.80;0.80;;;7.50;99.90;;;;;;5254523;28;20039;-74
2021/12/19 10:47:40;;;;;;;1.00;1.00;;;7.40;99.90;;;;;;5230488;28;20050;-75
2021/12/19 10:50:14;;;;;;;0.65;0.65;;;7.30;99.90;;;;;;5259894;28;20247;-74
2021/12/19 10:52:50;;;;;;;0.75;0.75;;;7.30;99.90;;;;;;5260081;28;20032;-74
2021/12/19 10:55:28;;;;;;;1.48;1.38;;;7.20;99.90;;;;;;5267369;28;20024;-74
2021/12/19 10:58:02;;;;;;;0.70;0.70;;;7.60;99.90;;;;;;5242345;28;20046;-74
2021/12/19 11:00:39;;;;;;;0.77;0.77;;;7.80;99.90;;;;;;5242465;28;20032;-74
2021/12/19 11:03:20;;;;;;;0.98;0.98;;;7.90;99.90;;;;;;5226977;28;20629;-74
2021/12/19 11:05:57;;;;;;;0.70;0.70;;;8.30;99.90;;;;;;5234601;28;20536;-74
2021/12/19 11:08:34;;;;;;;0.77;0.77;;;8.40;99.90;;;;;;5257583;28;20040;-74
2021/12/19 11:11:10;;;;;;;0.90;0.90;;;8.20;99.90;;;;;;5237922;28;20029;-73
2021/12/19 11:13:45;;;;;;;0.55;0.55;;;7.70;99.90;;;;;;5225523;28;20040;-74
2021/12/19 11:16:19;;;;;;;0.85;0.85;;;7.60;99.90;;;;;;5239943;28;20551;-74
2021/12/19 11:18:53;;;;;;;0.80;0.80;;;7.70;99.90;;;;;;5221291;28;20338;-74
2021/12/19 11:21:33;;;;;;;0.60;0.60;;;7.90;99.90;;;;;;5238430;28;20246;-74
2021/12/19 11:24:13;;;;;;;0.60;0.60;;;7.90;99.90;;;;;;5239458;28;20040;-74
2021/12/19 11:26:54;;;;;;;0.40;0.40;;;7.80;99.90;;;;;;5253584;28;20031;-74
2021/12/19 11:29:31;;;;;;;1.00;1.00;;;7.80;99.90;;;;;;5256460;28;20040;-74
2021/12/19 11:32:06;;;;;;;1.60;1.58;;;7.90;99.90;;;;;;5252185;28;20059;-73
2021/12/19 11:34:57;;;;;;;0.60;0.60;;;7.80;99.90;;;;;;5228884;28;20028;-73
2021/12/19 11:37:44;;;;;;;0.60;0.60;;;8.20;99.90;;;;;;5251951;28;20062;-73
2021/12/19 11:40:20;;;;;;;0.95;0.95;;;7.90;99.90;;;;;;5258340;28;20081;-74
2021/12/19 11:43:07;;;;;;;0.70;0.70;;;8.00;99.90;;;;;;5248249;28;20024;-74
2021/12/19 11:45:46;;;;;;;0.63;0.63;;;8.60;99.90;;;;;;5250929;28;20068;-74
2021/12/19 11:48:32;;;;;;;0.60;0.60;;;8.90;99.90;;;;;;5249446;28;20035;-77
2021/12/19 11:51:20;;;;;;;0.90;0.90;;;8.70;99.90;;;;;;5258255;28;20032;-74
2021/12/19 11:54:18;;;;;;;0.90;0.90;;;9.50;99.90;;;;;;5249257;28;20051;-74
2021/12/19 11:57:08;;;;;;;0.80;0.80;;;8.30;99.90;;;;;;5245662;28;20027;-74
2021/12/19 11:59:39;;;;;;;0.50;0.50;;;7.70;99.90;;;;;;5228934;28;20038;-74
2021/12/19 12:02:22;;;;;;;0.70;0.70;;;7.50;99.90;;;;;;5254153;28;20047;-74
2021/12/19 12:05:18;;;;;;;0.52;0.52;;;7.80;99.90;;;;;;5249651;28;20055;-74
2021/12/19 12:08:04;;;;;;;;;;;7.60;99.90;;;;;;5252455;28;20079;-74
2021/12/19 12:10:50;;;;;;;0.73;0.73;;;7.70;99.90;;;;;;5238625;28;19914;-74
2021/12/19 12:13:42;;;;;;;0.60;0.60;;;7.50;99.90;;;;;;5250273;28;20161;-73
2021/12/19 12:18:44;;;;;;;0.93;0.93;;;7.20;99.90;;;;;;5253670;28;20020;-73
2021/12/19 12:23:57;;;;;;;0.80;0.80;;;7.70;99.90;;;;;;5253213;28;20444;-75
2021/12/19 12:27:05;;;;;;;0.47;0.47;;;7.40;99.90;;;;;;5244675;28;20032;-75
2021/12/19 12:29:38;;;;;;;0.63;0.63;;;6.70;99.90;;;;;;5260981;28;20036;-75
2021/12/19 12:32:09;;;;;;;0.60;0.60;;;6.80;99.90;;;;;;5260184;28;20336;-73
2021/12/19 12:34:45;;;;;;;0.57;0.57;;;6.90;99.90;;;;;;5243889;28;20600;-74
2021/12/19 12:37:22;;;;;;;1.05;1.05;;;6.90;99.90;;;;;;5245608;28;20577;-74
2021/12/19 12:40:20;;;;;;;0.70;0.70;;;7.10;99.90;;;;;;5260914;28;20089;-76
2021/12/19 12:43:13;;;;;;;1.13;1.13;;;7.40;99.90;;;;;;5262082;28;20036;-74
2021/12/19 12:46:00;;;;;;;0.75;0.75;;;7.10;99.90;;;;;;5257979;28;20030;-73
2021/12/19 12:48:52;;;;;;;0.68;0.68;;;6.80;99.90;;;;;;5257285;28;20043;-74
2021/12/19 12:51:40;;;;;;;1.05;1.05;;;7.30;99.90;;;;;;5247668;28;20027;-73
2021/12/19 12:54:22;;;;;;;0.60;0.60;;;7.20;99.90;;;;;;5261314;28;20020;-74
2021/12/19 12:56:57;;;;;;;0.47;0.47;;;7.40;99.90;;;;;;5261075;28;20114;-74
2021/12/19 12:59:33;;;;;;;;;;;7.30;99.90;;;;;;5262620;28;20032;-73
2021/12/19 13:02:27;;;;;;;0.52;0.52;;;7.20;99.90;;;;;;5260159;28;19980;-74
2021/12/19 13:05:08;;;;;;;0.90;0.90;;;7.30;99.90;;;;;;5251642;28;20047;-74
2021/12/19 13:07:43;;;;;;;0.50;0.50;;;7.20;99.90;;;;;;5259679;28;20035;-75
2021/12/19 13:10:17;;;;;;;0.60;0.60;;;7.10;99.90;;;;;;5260243;28;20249;-75
2021/12/19 13:12:50;;;;;;;0.80;0.80;;;6.90;99.90;;;;;;5260432;28;20043;-73
2021/12/19 13:15:23;;;;;;;0.55;0.55;;;6.50;99.90;;;;;;5261913;28;20087;-74
2021/12/19 13:17:55;;;;;;;0.80;0.80;;;6.60;99.90;;;;;;5261372;28;20059;-74
2021/12/19 13:20:31;;;;;;;0.80;0.80;;;6.80;99.90;;;;;;5259149;28;20831;-73
2021/12/19 13:23:04;;;;;;;0.95;0.95;;;7.00;99.90;;;;;;5257224;28;20063;-74
2021/12/19 13:25:42;;;;;;;0.77;0.77;;;6.70;99.90;;;;;;5259257;28;20051;-74
2021/12/19 13:28:20;;;;;;;0.57;0.57;;;6.70;99.90;;;;;;5244627;28;20043;-73
2021/12/19 13:30:57;;;;;;;0.75;0.75;;;6.50;99.90;;;;;;5253616;28;20070;-73
2021/12/19 13:33:30;;;;;;;0.57;0.57;;;6.20;99.90;;;;;;5260793;28;20047;-74
2021/12/19 13:36:00;;;;;;;0.40;0.40;;;6.10;99.90;;;;;;5260973;28;20042;-74
2021/12/19 13:38:33;;;;;;;0.60;0.60;;;6.00;99.90;;;;;;5243489;28;20052;-74
2021/12/19 13:41:12;;;;;;;0.90;0.90;;;6.10;99.90;;;;;;5259901;28;20026;-74
2021/12/19 13:43:45;;;;;;;0.60;0.60;;;5.90;99.90;;;;;;5259472;28;20051;-74
2021/12/19 13:46:16;;;;;;;0.70;0.70;;;5.60;99.90;;;;;;5261991;28;20036;-74
2021/12/19 13:48:55;;;;;;;0.45;0.45;;;5.50;99.90;;;;;;5257545;28;20097;-75
2021/12/19 13:51:29;;;;;;;0.60;0.60;;;5.30;99.90;;;;;;5243390;28;20082;-74
2021/12/19 13:54:03;;;;;;;0.50;0.50;;;5.20;99.90;;;;;;5241560;28;20024;-73
2021/12/19 13:56:38;;;;;;;0.70;0.70;;;5.00;99.90;;;;;;5259303;28;20024;-74
2021/12/19 13:59:24;;;;;;;0.70;0.70;;;4.90;99.90;;;;;;5258797;28;20589;-75
2021/12/19 14:01:55;;;;;;;0.60;0.60;;;4.80;99.90;;;;;;5255788;28;20046;-74
2021/12/19 14:04:31;;;;;;;0.47;0.47;;;4.70;99.90;;;;;;5237751;28;20095;-74
2021/12/19 14:07:11;;;;;;;0.52;0.52;;;4.70;99.90;;;;;;5262184;28;20238;-74
2021/12/19 14:09:45;;;;;;;0.40;0.40;;;4.60;99.90;;;;;;5226600;28;20024;-74
2021/12/19 14:12:52;;;;;;;0.40;0.40;;;4.60;99.90;;;;;;5251292;28;20062;-75
2021/12/19 14:15:12;;;;;;;0.88;0.88;;;4.50;99.90;;;;;;5252355;28;20061;-75
2021/12/19 14:17:44;;;;;;;0.70;0.70;;;4.50;99.90;;;;;;5247254;28;20453;-75
2021/12/19 14:20:26;;;;;;;1.05;1.05;;;4.50;99.90;;;;;;5246353;28;20024;-74
2021/12/19 14:23:20;;;;;;;0.50;0.50;;;4.40;99.90;;;;;;5248227;28;20332;-75
2021/12/19 14:25:51;;;;;;;0.68;0.68;;;4.40;99.90;;;;;;5249730;28;20028;-75
2021/12/19 14:28:30;;;;;;;0.50;0.50;;;4.40;99.90;;;;;;5256105;28;20063;-75
2021/12/19 14:31:09;;;;;;;0.43;0.43;;;4.30;99.90;;;;;;5257636;28;20047;-75
2021/12/19 14:33:50;;;;;;;0.40;0.40;;;4.20;99.90;;;;;;5246896;28;20083;-75
2021/12/19 14:36:30;;;;;;;0.50;0.50;;;4.10;99.90;;;;;;5245724;28;20070;-74
2021/12/19 14:39:06;;;;;;;0.85;0.85;;;4.10;99.90;;;;;;5247102;28;20041;-75
2021/12/19 14:41:37;;;;;;;0.60;0.60;;;4.00;99.90;;;;;;5244965;28;20051;-73
2021/12/19 14:44:22;;;;;;;0.63;0.63;;;3.90;99.90;;;;;;5242039;28;20469;-74
2021/12/19 14:46:54;;;;;;;0.73;0.73;;;3.80;99.90;;;;;;5259997;28;20052;-74
2021/12/19 14:49:38;;;;;;;0.70;0.70;;;3.80;99.90;;;;;;5237951;28;20024;-74
2021/12/19 14:52:10;;;;;;;0.80;0.80;;;3.80;99.90;;;;;;5248788;28;20075;-74
2021/12/19 14:54:40;;;;;;;0.82;0.82;;;3.70;99.90;;;;;;5258052;28;20032;-74